createdAt,value
2023-01-29T00:02:33.434Z,-2.51
2023-01-29T00:07:36.343Z,-2.52
2023-01-29T00:12:39.802Z,-2.56
2023-01-29T00:17:42.551Z,-2.57
2023-01-29T00:22:45.457Z,-2.54
2023-01-29T00:27:48.463Z,-2.52
2023-01-29T00:32:51.373Z,-2.52
2023-01-29T00:37:56.120Z,-2.51
2023-01-29T00:43:17.451Z,-2.43
2023-01-29T00:48:20.251Z,-2.42
2023-01-29T00:53:23.153Z,-2.43
2023-01-29T00:58:28.408Z,-2.38
2023-01-29T01:03:34.087Z,-2.37
2023-01-29T01:08:55.534Z,-2.31
2023-01-29T01:14:02.312Z,-2.29
2023-01-29T01:19:05.522Z,-2.30
2023-01-29T01:24:08.376Z,-2.28
2023-01-29T01:29:11.333Z,-2.30
2023-01-29T01:34:15.068Z,-2.32
2023-01-29T01:39:17.954Z,-2.28
2023-01-29T01:44:58.668Z,-2.27
2023-01-29T01:50:09.750Z,-2.30
2023-01-29T01:55:14.896Z,-2.31
2023-01-29T02:00:20.367Z,-2.34
2023-01-29T02:05:42.823Z,-2.35
2023-01-29T02:10:48.701Z,-2.37
2023-01-29T02:15:51.701Z,-2.36
2023-01-29T02:21:25.353Z,-2.36
2023-01-29T02:26:49.322Z,-2.35
2023-01-29T02:32:04.083Z,-2.30
2023-01-29T02:37:11.877Z,-2.31
2023-01-29T02:42:36.892Z,-2.30
2023-01-29T02:47:50.195Z,-2.30
2023-01-29T02:53:06.711Z,-2.30
2023-01-29T02:58:17.713Z,-2.32
2023-01-29T03:03:37.099Z,-2.38
2023-01-29T03:08:43.375Z,-2.40
2023-01-29T03:13:50.787Z,-2.40
2023-01-29T03:19:07.617Z,-2.41
2023-01-29T03:24:32.230Z,-2.44
2023-01-29T03:29:57.460Z,-2.45
2023-01-29T03:35:05.502Z,-2.46
2023-01-29T03:40:10.655Z,-2.49
2023-01-29T03:45:32.017Z,-2.52
2023-01-29T03:50:41.125Z,-2.53
2023-01-29T03:55:55.504Z,-2.52
2023-01-29T04:01:27.807Z,-2.49
2023-01-29T04:06:35.095Z,-2.46
2023-01-29T04:11:44.332Z,-2.43
2023-01-29T04:16:53.643Z,-2.44
2023-01-29T04:22:10.828Z,-2.45
2023-01-29T04:27:26.779Z,-2.46
2023-01-29T04:33:03.851Z,-2.45
2023-01-29T04:38:16.287Z,-2.45
2023-01-29T04:43:38.437Z,-2.42
2023-01-29T04:49:16.051Z,-2.42
2023-01-29T04:54:25.817Z,-2.40
2023-01-29T04:59:36.209Z,-2.37
2023-01-29T05:04:41.961Z,-2.39
2023-01-29T05:09:46.960Z,-2.37
2023-01-29T05:14:51.810Z,-2.36
2023-01-29T05:19:56.875Z,-2.37
2023-01-29T05:24:59.722Z,-2.34
2023-01-29T05:30:02.850Z,-2.35
2023-01-29T05:35:06.346Z,-2.32
2023-01-29T05:40:09.747Z,-2.31
2023-01-29T05:45:12.576Z,-2.30
2023-01-29T05:50:16.647Z,-2.28
2023-01-29T05:55:19.604Z,-2.25
2023-01-29T06:00:23.059Z,-2.23
2023-01-29T06:05:25.924Z,-2.23
2023-01-29T06:10:28.820Z,-2.23
2023-01-29T06:15:31.629Z,-2.19
2023-01-29T06:20:34.538Z,-2.20
2023-01-29T06:25:37.435Z,-2.16
2023-01-29T06:30:40.259Z,-2.12
2023-01-29T06:35:43.338Z,-2.09
2023-01-29T06:40:46.138Z,-2.06
2023-01-29T06:45:52.860Z,-2.04
2023-01-29T06:50:55.843Z,-2.00
2023-01-29T06:55:58.846Z,-2.00
2023-01-29T07:01:11.123Z,-1.98
2023-01-29T07:06:15.607Z,-1.96
2023-01-29T07:11:19.127Z,-1.96
2023-01-29T07:16:21.958Z,-1.91
2023-01-29T07:21:25.495Z,-1.93
2023-01-29T07:26:28.346Z,-1.92
2023-01-29T07:31:31.632Z,-1.92
2023-01-29T07:36:34.664Z,-1.89
2023-01-29T07:41:37.570Z,-1.83
2023-01-29T07:46:40.476Z,-1.72
2023-01-29T07:51:43.262Z,-1.59
2023-01-29T07:56:46.076Z,-1.44
2023-01-29T08:01:48.984Z,-1.39
2023-01-29T08:06:51.880Z,-1.33
2023-01-29T08:11:54.653Z,-1.17
2023-01-29T08:16:57.589Z,-1.05
2023-01-29T08:22:00.384Z,-0.97
2023-01-29T08:27:03.395Z,-0.94
2023-01-29T08:32:10.313Z,-0.92
2023-01-29T08:37:13.187Z,-0.89
2023-01-29T08:42:16.251Z,-0.81
2023-01-29T08:47:19.127Z,-0.75
2023-01-29T08:52:22.003Z,-0.67
2023-01-29T08:57:25.013Z,-0.63
2023-01-29T09:02:27.883Z,-0.57
2023-01-29T09:07:30.824Z,-0.50
2023-01-29T09:12:33.822Z,-0.30
2023-01-29T09:17:36.745Z,-0.20
2023-01-29T09:22:39.636Z,-0.27
2023-01-29T09:27:42.539Z,-0.35
2023-01-29T09:32:54.220Z,-0.44
2023-01-29T09:37:57.981Z,-0.44
2023-01-29T09:43:14.287Z,-0.52
2023-01-29T09:48:17.931Z,-0.56
2023-01-29T09:53:32.652Z,-0.53
2023-01-29T09:58:39.220Z,-0.45
2023-01-29T10:04:18.483Z,-0.28
2023-01-29T10:09:49.491Z,-0.06
2023-01-29T10:15:22.809Z,0.05
2023-01-29T10:20:31.555Z,0.08
2023-01-29T10:25:40.511Z,0.03
2023-01-29T10:30:49.143Z,-0.01
2023-01-29T10:35:57.361Z,-0.10
2023-01-29T10:41:24.329Z,-0.20
2023-01-29T10:47:08.033Z,-0.22
2023-01-29T10:52:34.135Z,-0.14
2023-01-29T10:57:57.622Z,-0.23
2023-01-29T11:03:27.849Z,-0.22
2023-01-29T11:08:52.889Z,-0.22
2023-01-29T11:14:00.399Z,-0.26
2023-01-29T11:19:03.505Z,-0.20
2023-01-29T11:24:18.755Z,-0.15
2023-01-29T11:29:27.744Z,-0.08
2023-01-29T11:34:34.258Z,-0.10
2023-01-29T11:39:44.668Z,-0.01
2023-01-29T11:44:47.822Z,0.10
2023-01-29T11:49:54.206Z,0.08
2023-01-29T11:55:03.869Z,0.08
2023-01-29T12:00:28.659Z,0.10
2023-01-29T12:05:31.688Z,0.04
2023-01-29T12:10:41.167Z,0.00
2023-01-29T12:15:44.157Z,-0.08
2023-01-29T12:20:53.137Z,-0.14
2023-01-29T12:26:13.048Z,-0.20
2023-01-29T12:31:29.460Z,-0.16
2023-01-29T12:36:38.681Z,-0.11
2023-01-29T12:41:57.047Z,-0.11
2023-01-29T12:47:03.072Z,-0.14
2023-01-29T12:52:17.604Z,-0.16
2023-01-29T12:57:31.149Z,-0.22
2023-01-29T13:02:44.805Z,-0.27
2023-01-29T13:07:53.668Z,-0.31
2023-01-29T13:13:22.766Z,-0.28
2023-01-29T13:18:46.238Z,-0.29
2023-01-29T13:23:51.518Z,-0.29
2023-01-29T13:28:55.155Z,-0.26
2023-01-29T13:34:13.816Z,-0.24
2023-01-29T13:39:30.775Z,-0.23
2023-01-29T13:44:39.373Z,-0.28
2023-01-29T13:49:46.575Z,-0.29
2023-01-29T13:55:14.125Z,-0.29
2023-01-29T14:00:24.473Z,-0.32
2023-01-29T14:05:30.231Z,-0.32
2023-01-29T14:10:35.195Z,-0.29
2023-01-29T14:15:41.900Z,-0.33
2023-01-29T14:20:47.418Z,-0.39
2023-01-29T14:25:50.752Z,-0.42
2023-01-29T14:30:55.257Z,-0.42
2023-01-29T14:35:59.123Z,-0.45
2023-01-29T14:41:33.025Z,-0.47
2023-01-29T14:46:35.933Z,-0.48
2023-01-29T14:51:42.012Z,-0.48
2023-01-29T14:56:57.574Z,-0.50
2023-01-29T15:02:22.382Z,-0.50
2023-01-29T15:07:39.768Z,-0.53
2023-01-29T15:12:52.090Z,-0.53
2023-01-29T15:18:00.040Z,-0.55
2023-01-29T15:23:04.971Z,-0.55
2023-01-29T15:28:11.762Z,-0.53
2023-01-29T15:33:15.134Z,-0.54
2023-01-29T15:38:23.094Z,-0.53
2023-01-29T15:43:31.489Z,-0.52
2023-01-29T15:48:41.043Z,-0.50
2023-01-29T15:53:54.044Z,-0.50
2023-01-29T15:59:00.884Z,-0.48
2023-01-29T16:04:04.817Z,-0.49
2023-01-29T16:09:08.470Z,-0.45
2023-01-29T16:14:17.609Z,-0.45
2023-01-29T16:19:27.085Z,-0.48
2023-01-29T16:24:32.735Z,-0.47
2023-01-29T16:29:35.963Z,-0.48
2023-01-29T16:34:40.188Z,-0.45
2023-01-29T16:39:47.520Z,-0.44
2023-01-29T16:44:50.410Z,-0.44
2023-01-29T16:49:58.509Z,-0.43
2023-01-29T16:55:19.765Z,-0.43
2023-01-29T17:00:29.678Z,-0.42
2023-01-29T17:05:36.918Z,-0.42
2023-01-29T17:10:47.835Z,-0.44
2023-01-29T17:15:50.777Z,-0.47
2023-01-29T17:20:53.835Z,-0.49
2023-01-29T17:25:56.942Z,-0.50
2023-01-29T17:31:06.315Z,-0.50
2023-01-29T17:36:12.786Z,-0.52
2023-01-29T17:41:25.289Z,-0.53
2023-01-29T17:46:28.224Z,-0.54
2023-01-29T17:51:31.131Z,-0.56
2023-01-29T17:56:33.923Z,-0.56
2023-01-29T18:01:36.771Z,-0.57
2023-01-29T18:06:41.149Z,-0.61
2023-01-29T18:11:44.067Z,-0.62
2023-01-29T18:16:47.513Z,-0.65
2023-01-29T18:21:51.143Z,-0.64
2023-01-29T18:26:54.009Z,-0.64
2023-01-29T18:31:57.059Z,-0.61
2023-01-29T18:37:00.435Z,-0.60
2023-01-29T18:42:03.639Z,-0.59
2023-01-29T18:47:06.660Z,-0.58
2023-01-29T18:52:10.193Z,-0.58
2023-01-29T18:57:15.956Z,-0.57
2023-01-29T19:02:36.653Z,-0.57
2023-01-29T19:07:39.452Z,-0.54
2023-01-29T19:12:42.464Z,-0.55
2023-01-29T19:17:45.363Z,-0.55
2023-01-29T19:22:48.888Z,-0.56
2023-01-29T19:27:51.689Z,-0.53
2023-01-29T19:32:54.483Z,-0.52
2023-01-29T19:37:57.237Z,-0.49
2023-01-29T19:43:00.105Z,-0.46
2023-01-29T19:48:03.097Z,-0.44
2023-01-29T19:53:06.403Z,-0.45
2023-01-29T19:58:09.210Z,-0.44
2023-01-29T20:03:12.008Z,-0.47
2023-01-29T20:08:14.911Z,-0.46
2023-01-29T20:13:17.824Z,-0.47
2023-01-29T20:18:20.724Z,-0.50
2023-01-29T20:23:37.296Z,-0.51
2023-01-29T20:28:41.061Z,-0.50
2023-01-29T20:33:44.527Z,-0.49
2023-01-29T20:38:48.204Z,-0.49
2023-01-29T20:43:51.206Z,-0.52
2023-01-29T20:48:54.732Z,-0.54
2023-01-29T20:53:57.637Z,-0.55
2023-01-29T20:59:02.343Z,-0.53
2023-01-29T21:04:05.725Z,-0.53
2023-01-29T21:09:09.436Z,-0.51
2023-01-29T21:14:12.725Z,-0.50
2023-01-29T21:19:15.743Z,-0.49
2023-01-29T21:24:19.052Z,-0.48
2023-01-29T21:29:22.067Z,-0.45
2023-01-29T21:34:25.670Z,-0.43
2023-01-29T21:39:28.501Z,-0.42
2023-01-29T21:44:33.565Z,-0.40
2023-01-29T21:49:36.837Z,-0.38
2023-01-29T21:54:40.200Z,-0.35
2023-01-29T21:59:43.775Z,-0.36
2023-01-29T22:04:52.459Z,-0.36
2023-01-29T22:09:55.413Z,-0.35
2023-01-29T22:14:58.314Z,-0.37
2023-01-29T22:20:01.529Z,-0.37
2023-01-29T22:25:05.475Z,-0.38
2023-01-29T22:30:09.380Z,-0.37
2023-01-29T22:35:12.292Z,-0.38
2023-01-29T22:40:15.441Z,-0.39
2023-01-29T22:45:18.609Z,-0.36
2023-01-29T22:50:21.513Z,-0.36
2023-01-29T22:55:24.412Z,-0.35
2023-01-29T23:00:27.313Z,-0.35
2023-01-29T23:05:30.221Z,-0.34
2023-01-29T23:10:33.120Z,-0.37
2023-01-29T23:15:35.927Z,-0.38
2023-01-29T23:20:38.828Z,-0.37
2023-01-29T23:26:00.572Z,-0.35
2023-01-29T23:31:03.503Z,-0.35
2023-01-29T23:36:07.751Z,-0.37
2023-01-29T23:41:10.621Z,-0.36
2023-01-29T23:46:13.486Z,-0.36
2023-01-29T23:51:16.421Z,-0.38
2023-01-29T23:56:19.424Z,-0.40
